createdAt,value
2022-08-12T00:02:43.560Z,13.40
2022-08-12T00:05:28.630Z,13.40
2022-08-12T00:08:15.720Z,13.40
2022-08-12T00:11:12.303Z,13.30
2022-08-12T00:13:57.715Z,13.30
2022-08-12T00:16:48.591Z,13.40
2022-08-12T00:19:34.112Z,13.10
2022-08-12T00:22:19.158Z,13.10
2022-08-12T00:25:05.192Z,13.10
2022-08-12T00:27:50.254Z,12.90
2022-08-12T00:30:35.361Z,13.00
2022-08-12T00:33:22.113Z,12.90
2022-08-12T00:36:35.278Z,12.90
2022-08-12T00:39:16.467Z,12.80
2022-08-12T00:42:02.028Z,12.70
2022-08-12T00:44:28.658Z,12.80
2022-08-12T00:46:57.599Z,12.80
2022-08-12T00:49:24.636Z,12.70
2022-08-12T00:52:08.818Z,12.70
2022-08-12T00:54:44.206Z,12.70
2022-08-12T00:57:14.930Z,12.70
2022-08-12T00:59:52.828Z,12.60
2022-08-12T01:02:23.861Z,12.60
2022-08-12T01:05:21.349Z,12.60
2022-08-12T01:08:07.008Z,12.60
2022-08-12T01:10:54.004Z,12.50
2022-08-12T01:13:21.329Z,12.40
2022-08-12T01:15:50.469Z,12.50
2022-08-12T01:18:18.974Z,12.40
2022-08-12T01:21:17.285Z,12.40
2022-08-12T01:24:29.498Z,12.40
2022-08-12T01:26:51.080Z,12.30
2022-08-12T01:29:20.814Z,12.40
2022-08-12T01:31:48.112Z,12.40
2022-08-12T01:34:36.517Z,12.20
2022-08-12T01:37:03.370Z,12.20
2022-08-12T01:39:32.352Z,12.40
2022-08-12T01:42:02.606Z,12.30
2022-08-12T01:44:29.353Z,12.20
2022-08-12T01:47:32.554Z,12.20
2022-08-12T01:50:26.264Z,12.20
2022-08-12T01:53:11.271Z,12.20
2022-08-12T01:55:42.548Z,12.10
2022-08-12T01:58:30.080Z,12.10
2022-08-12T02:01:03.763Z,12.00
2022-08-12T02:04:12.635Z,12.10
2022-08-12T02:07:13.234Z,12.00
2022-08-12T02:10:05.792Z,12.00
2022-08-12T02:12:54.473Z,12.00
2022-08-12T02:15:42.507Z,12.00
2022-08-12T02:18:46.157Z,12.00
2022-08-12T02:21:32.554Z,11.90
2022-08-12T02:23:59.489Z,12.10
2022-08-12T02:26:26.690Z,11.90
2022-08-12T02:28:53.317Z,11.80
2022-08-12T02:31:19.990Z,11.80
2022-08-12T02:33:47.555Z,11.80
2022-08-12T02:36:16.289Z,11.70
2022-08-12T02:38:43.661Z,11.80
2022-08-12T02:41:11.432Z,11.70
2022-08-12T02:43:54.834Z,11.70
2022-08-12T02:46:27.525Z,11.80
2022-08-12T02:49:00.819Z,11.70
2022-08-12T02:51:33.257Z,11.60
2022-08-12T02:54:06.571Z,11.50
2022-08-12T02:56:40.399Z,11.50
2022-08-12T02:59:12.291Z,11.50
2022-08-12T03:01:48.546Z,11.50
2022-08-12T03:04:24.377Z,11.50
2022-08-12T03:07:18.662Z,11.50
2022-08-12T03:10:03.879Z,11.40
2022-08-12T03:12:44.802Z,11.40
2022-08-12T03:15:18.098Z,11.40
2022-08-12T03:18:27.668Z,11.30
2022-08-12T03:20:48.730Z,11.30
2022-08-12T03:23:23.153Z,11.30
2022-08-12T03:25:58.723Z,11.20
2022-08-12T03:28:44.022Z,11.20
2022-08-12T03:31:10.810Z,11.20
2022-08-12T03:33:39.488Z,11.20
2022-08-12T03:36:07.532Z,11.20
2022-08-12T03:38:37.250Z,11.20
2022-08-12T03:41:35.230Z,11.10
2022-08-12T03:44:28.374Z,11.00
2022-08-12T03:47:41.997Z,11.10
2022-08-12T03:50:27.011Z,11.00
2022-08-12T03:53:12.174Z,10.90
2022-08-12T03:55:57.118Z,10.90
2022-08-12T03:58:42.268Z,11.00
2022-08-12T04:01:09.009Z,11.10
2022-08-12T04:03:54.661Z,11.00
2022-08-12T04:06:35.158Z,11.00
2022-08-12T04:09:03.340Z,11.00
2022-08-12T04:11:48.365Z,10.90
2022-08-12T04:14:22.294Z,10.80
2022-08-12T04:16:49.422Z,10.90
2022-08-12T04:19:16.394Z,10.90
2022-08-12T04:22:02.224Z,10.90
2022-08-12T04:24:34.918Z,10.80
2022-08-12T04:27:02.372Z,10.80
2022-08-12T04:30:16.726Z,10.90
2022-08-12T04:32:15.787Z,10.80
2022-08-12T04:34:44.410Z,10.80
2022-08-12T04:37:12.532Z,10.70
2022-08-12T04:39:39.514Z,10.80
2022-08-12T04:42:06.529Z,10.80
2022-08-12T04:44:33.141Z,10.70
2022-08-12T04:47:00.158Z,10.80
2022-08-12T04:49:27.734Z,10.70
2022-08-12T04:51:58.825Z,10.70
2022-08-12T04:54:26.968Z,10.70
2022-08-12T04:57:03.614Z,10.80
2022-08-12T04:59:32.698Z,10.80
2022-08-12T05:02:14.622Z,10.90
2022-08-12T05:04:43.900Z,10.90
2022-08-12T05:07:11.446Z,11.00
2022-08-12T05:10:00.884Z,11.00
2022-08-12T05:12:25.411Z,11.00
2022-08-12T05:14:52.029Z,11.00
2022-08-12T05:17:18.805Z,11.20
2022-08-12T05:19:46.253Z,11.10
2022-08-12T05:22:13.126Z,11.30
2022-08-12T05:24:39.744Z,11.30
2022-08-12T05:27:06.435Z,11.20
2022-08-12T05:30:06.534Z,11.20
2022-08-12T05:32:25.631Z,11.30
2022-08-12T05:34:53.664Z,11.20
2022-08-12T05:37:23.505Z,11.20
2022-08-12T05:39:50.395Z,11.30
2022-08-12T05:42:18.141Z,11.50
2022-08-12T05:45:00.007Z,11.60
2022-08-12T05:47:42.778Z,11.70
2022-08-12T05:50:15.855Z,11.80
2022-08-12T05:52:42.606Z,11.90
2022-08-12T05:55:10.278Z,12.00
2022-08-12T05:57:38.498Z,12.00
2022-08-12T06:00:05.784Z,12.10
2022-08-12T06:02:32.474Z,12.20
2022-08-12T06:05:00.233Z,12.30
2022-08-12T06:07:42.800Z,12.50
2022-08-12T06:10:13.672Z,12.60
2022-08-12T06:12:40.485Z,12.70
2022-08-12T06:15:07.777Z,13.00
2022-08-12T06:17:35.203Z,12.90
2022-08-12T06:20:29.455Z,13.10
2022-08-12T06:22:48.541Z,13.10
2022-08-12T06:25:22.012Z,13.30
2022-08-12T06:28:06.768Z,13.50
2022-08-12T06:30:38.362Z,13.70
2022-08-12T06:33:24.834Z,13.90
2022-08-12T06:35:57.731Z,14.10
2022-08-12T06:38:25.803Z,14.20
2022-08-12T06:41:15.474Z,14.40
2022-08-12T06:44:06.597Z,14.50
2022-08-12T06:46:30.655Z,14.60
2022-08-12T06:48:58.956Z,14.90
2022-08-12T06:51:27.268Z,15.00
2022-08-12T06:53:54.621Z,15.10
2022-08-12T06:56:30.460Z,15.00
2022-08-12T06:59:06.777Z,14.90
2022-08-12T07:01:33.483Z,15.00
2022-08-12T07:04:14.319Z,15.10
2022-08-12T07:06:46.852Z,15.30
2022-08-12T07:09:55.719Z,15.40
2022-08-12T07:12:01.641Z,15.60
2022-08-12T07:14:28.391Z,15.80
2022-08-12T07:17:01.947Z,15.80
2022-08-12T07:19:40.608Z,15.90
2022-08-12T07:22:14.021Z,15.90
2022-08-12T07:24:40.822Z,16.10
2022-08-12T07:27:07.534Z,16.20
2022-08-12T07:30:00.035Z,16.20
2022-08-12T07:32:24.378Z,16.20
2022-08-12T07:34:52.337Z,16.50
2022-08-12T07:37:18.969Z,16.50
2022-08-12T07:39:51.281Z,16.50
2022-08-12T07:42:26.811Z,16.50
2022-08-12T07:44:53.598Z,16.60
2022-08-12T07:47:20.239Z,16.70
2022-08-12T07:50:04.909Z,16.70
2022-08-12T07:52:34.525Z,16.90
2022-08-12T07:55:01.589Z,16.90
2022-08-12T07:57:28.255Z,17.10
2022-08-12T07:59:55.802Z,17.20
2022-08-12T08:02:26.801Z,17.10
2022-08-12T08:04:56.915Z,17.20
2022-08-12T08:07:25.608Z,17.20
2022-08-12T08:09:58.485Z,17.40
2022-08-12T08:12:47.844Z,17.50
2022-08-12T08:15:15.524Z,17.90
2022-08-12T08:17:54.450Z,17.60
2022-08-12T08:20:23.368Z,17.70
2022-08-12T08:22:50.010Z,17.80
2022-08-12T08:25:34.589Z,17.90
2022-08-12T08:28:11.733Z,18.10
2022-08-12T08:30:42.285Z,18.20
2022-08-12T08:33:23.758Z,18.20
2022-08-12T08:35:55.974Z,18.10
2022-08-12T08:38:32.097Z,18.60
2022-08-12T08:42:18.108Z,19.90
2022-08-12T08:44:07.757Z,19.40
2022-08-12T08:46:37.492Z,18.50
2022-08-12T08:49:05.293Z,19.40
2022-08-12T08:51:32.021Z,19.30
2022-08-12T08:53:58.672Z,18.70
2022-08-12T08:56:25.280Z,18.90
2022-08-12T08:58:51.907Z,19.30
2022-08-12T09:01:21.457Z,19.60
2022-08-12T09:05:08.205Z,20.00
2022-08-12T09:06:37.782Z,20.50
2022-08-12T09:09:23.887Z,21.00
2022-08-12T09:12:12.262Z,20.20
2022-08-12T09:14:47.063Z,19.60
2022-08-12T09:20:05.827Z,19.70
2022-08-12T09:22:35.114Z,20.00
2022-08-12T09:25:06.201Z,19.00
2022-08-12T09:27:57.730Z,19.10
2022-08-12T09:30:41.253Z,20.20
2022-08-12T09:33:18.311Z,20.40
2022-08-12T09:35:46.794Z,20.30
2022-08-12T09:38:32.083Z,20.20
2022-08-12T09:42:09.269Z,19.90
2022-08-12T09:44:05.131Z,19.90
2022-08-12T09:46:32.275Z,19.50
2022-08-12T09:49:01.664Z,19.80
2022-08-12T09:51:38.302Z,20.10
2022-08-12T09:54:32.813Z,19.80
2022-08-12T09:57:03.692Z,20.20
2022-08-12T10:00:16.634Z,20.80
2022-08-12T10:02:42.675Z,20.40
2022-08-12T10:05:17.702Z,20.40
2022-08-12T10:07:46.886Z,20.70
2022-08-12T10:10:23.784Z,20.10
2022-08-12T10:13:12.946Z,20.00
2022-08-12T10:16:03.076Z,19.90
2022-08-12T10:18:32.654Z,20.20
2022-08-12T10:21:05.637Z,20.00
2022-08-12T10:23:40.301Z,19.70
2022-08-12T10:26:37.685Z,20.10
2022-08-12T10:30:41.035Z,20.70
2022-08-12T10:32:20.579Z,20.80
2022-08-12T10:34:53.690Z,20.40
2022-08-12T10:38:34.507Z,20.90
2022-08-12T10:40:15.611Z,20.50
2022-08-12T10:43:05.772Z,20.10
2022-08-12T10:45:32.807Z,20.20
2022-08-12T10:48:21.516Z,20.30
2022-08-12T10:51:02.079Z,20.20
2022-08-12T10:53:45.944Z,20.90
2022-08-12T10:56:17.172Z,21.00
2022-08-12T10:58:45.968Z,20.70
2022-08-12T11:02:05.245Z,21.00
2022-08-12T11:04:22.960Z,20.40
2022-08-12T11:07:09.093Z,20.50
2022-08-12T11:09:59.753Z,20.40
2022-08-12T11:12:56.505Z,21.20
2022-08-12T11:15:20.641Z,21.30
2022-08-12T11:17:52.477Z,20.80
2022-08-12T11:20:20.882Z,20.70
2022-08-12T11:23:25.323Z,21.10
2022-08-12T11:25:59.649Z,21.50
2022-08-12T11:28:34.015Z,21.30
2022-08-12T11:31:02.992Z,21.20
2022-08-12T11:34:04.454Z,21.40
2022-08-12T11:36:16.920Z,21.30
2022-08-12T11:38:43.686Z,21.90
2022-08-12T11:41:31.775Z,21.40
2022-08-12T11:44:35.044Z,21.30
2022-08-12T11:46:51.153Z,20.80
2022-08-12T11:49:30.800Z,21.40
2022-08-12T11:51:59.413Z,21.20
2022-08-12T11:54:26.048Z,21.30
2022-08-12T11:57:00.059Z,22.00
2022-08-12T12:02:18.826Z,21.40
2022-08-12T12:04:46.075Z,21.40
2022-08-12T12:07:22.360Z,21.60
2022-08-12T12:09:53.413Z,21.60
2022-08-12T12:12:25.039Z,21.60
2022-08-12T12:14:54.168Z,21.50
2022-08-12T12:17:21.827Z,21.20
2022-08-12T12:19:48.843Z,21.00
2022-08-12T12:22:15.751Z,20.80
2022-08-12T12:24:51.006Z,21.90
2022-08-12T12:27:20.560Z,21.50
2022-08-12T12:30:18.745Z,21.30
2022-08-12T12:32:54.251Z,21.90
2022-08-12T12:36:19.661Z,21.70
2022-08-12T12:38:12.326Z,21.80
2022-08-12T12:40:44.180Z,21.40
2022-08-12T12:43:11.942Z,21.60
2022-08-12T12:45:39.640Z,21.50
2022-08-12T12:48:13.143Z,22.70
2022-08-12T12:51:10.877Z,22.60
2022-08-12T12:54:06.519Z,22.70
2022-08-12T12:56:34.190Z,22.50
2022-08-12T12:59:03.434Z,22.30
2022-08-12T13:01:32.890Z,22.60
2022-08-12T13:04:02.975Z,22.80
2022-08-12T13:06:31.474Z,23.10
2022-08-12T13:09:03.130Z,22.90
2022-08-12T13:11:41.453Z,22.40
2022-08-12T13:14:12.930Z,22.30
2022-08-12T13:16:55.232Z,22.10
2022-08-12T13:19:36.676Z,22.40
2022-08-12T13:22:19.311Z,21.80
2022-08-12T13:24:51.852Z,21.60
2022-08-12T13:27:21.472Z,21.80
2022-08-12T13:29:48.880Z,22.10
2022-08-12T13:32:28.210Z,22.40
2022-08-12T13:35:04.642Z,23.00
2022-08-12T13:37:54.806Z,21.90
2022-08-12T13:40:26.481Z,22.20
2022-08-12T13:42:57.397Z,23.70
2022-08-12T13:45:25.446Z,22.50
2022-08-12T13:48:00.268Z,22.90
2022-08-12T13:50:38.133Z,22.50
2022-08-12T13:53:24.928Z,22.60
2022-08-12T13:56:01.182Z,22.90
2022-08-12T13:58:30.080Z,23.50
2022-08-12T14:00:57.984Z,24.60
2022-08-12T14:03:28.569Z,24.20
2022-08-12T14:06:15.391Z,23.60
2022-08-12T14:08:42.773Z,23.30
2022-08-12T14:11:09.618Z,22.80
2022-08-12T14:14:03.828Z,23.90
2022-08-12T14:16:37.809Z,23.80
2022-08-12T14:19:22.564Z,23.20
2022-08-12T14:21:59.471Z,22.90
2022-08-12T14:24:27.336Z,22.80
2022-08-12T14:26:58.841Z,23.40
2022-08-12T14:29:56.268Z,23.10
2022-08-12T14:32:17.417Z,23.60
2022-08-12T14:34:46.295Z,23.20
2022-08-12T14:37:54.828Z,23.40
2022-08-12T14:40:00.472Z,23.30
2022-08-12T14:42:28.178Z,23.10
2022-08-12T14:45:01.623Z,23.80
2022-08-12T14:47:35.063Z,23.60
2022-08-12T14:50:37.714Z,23.60
2022-08-12T14:58:28.318Z,23.50
2022-08-12T15:01:16.996Z,23.30
2022-08-12T15:03:57.336Z,23.90
2022-08-12T15:06:39.746Z,23.70
2022-08-12T15:09:13.924Z,24.50
2022-08-12T15:11:54.398Z,24.80
2022-08-12T15:14:26.526Z,23.90
2022-08-12T15:16:56.980Z,24.90
2022-08-12T15:20:28.648Z,25.10
2022-08-12T15:22:36.080Z,27.80
2022-08-12T15:25:07.397Z,29.50
2022-08-12T15:28:05.255Z,32.30
2022-08-12T15:30:32.279Z,33.00
2022-08-12T15:33:00.412Z,34.20
2022-08-12T15:35:50.234Z,34.90
2022-08-12T15:38:20.612Z,36.00
2022-08-12T15:40:54.685Z,36.40
2022-08-12T15:43:35.489Z,35.50
2022-08-12T15:46:15.094Z,36.50
2022-08-12T15:48:47.449Z,36.70
2022-08-12T15:51:58.724Z,35.30
2022-08-12T15:54:33.168Z,38.30
2022-08-12T15:57:05.332Z,38.00
2022-08-12T15:59:51.143Z,38.60
2022-08-12T16:02:19.202Z,39.00
2022-08-12T16:04:50.200Z,39.40
2022-08-12T16:07:26.017Z,37.70
2022-08-12T16:10:05.437Z,36.00
2022-08-12T16:12:39.423Z,35.10
2022-08-12T16:15:07.075Z,37.80
2022-08-12T16:18:18.502Z,38.90
2022-08-12T16:20:27.827Z,38.70
2022-08-12T16:23:26.259Z,38.00
2022-08-12T16:26:05.665Z,37.90
2022-08-12T16:28:40.710Z,38.30
2022-08-12T16:31:09.790Z,37.70
2022-08-12T16:33:56.477Z,35.90
2022-08-12T16:36:25.412Z,35.50
2022-08-12T16:38:52.192Z,37.30
2022-08-12T16:41:18.863Z,37.50
2022-08-12T16:43:46.609Z,37.40
2022-08-12T16:46:32.419Z,38.30
2022-08-12T16:49:04.270Z,37.90
2022-08-12T16:51:40.263Z,37.40
2022-08-12T16:54:14.087Z,36.80
2022-08-12T16:56:54.801Z,37.20
2022-08-12T16:59:25.904Z,36.50
2022-08-12T17:01:57.574Z,33.70
2022-08-12T17:04:25.250Z,32.20
2022-08-12T17:06:52.529Z,30.90
2022-08-12T17:09:19.243Z,31.10
2022-08-12T17:11:49.689Z,31.30
2022-08-12T17:14:16.893Z,31.30
2022-08-12T17:16:45.689Z,30.10
2022-08-12T17:19:13.882Z,29.60
2022-08-12T17:22:01.169Z,28.70
2022-08-12T17:24:30.801Z,27.80
2022-08-12T17:26:58.673Z,27.50
2022-08-12T17:30:00.348Z,27.00
2022-08-12T17:32:14.146Z,26.80
2022-08-12T17:34:59.893Z,26.60
2022-08-12T17:37:27.009Z,26.60
2022-08-12T17:40:15.359Z,26.40
2022-08-12T17:42:43.498Z,26.00
2022-08-12T17:45:17.030Z,25.90
2022-08-12T17:47:44.373Z,25.70
2022-08-12T17:50:12.816Z,25.70
2022-08-12T17:52:40.212Z,25.60
2022-08-12T17:55:40.615Z,25.40
2022-08-12T17:57:55.370Z,25.10
2022-08-12T18:00:22.008Z,25.10
2022-08-12T18:02:49.304Z,25.10
2022-08-12T18:05:18.056Z,24.90
2022-08-12T18:07:49.717Z,24.90
2022-08-12T18:10:38.511Z,24.70
2022-08-12T18:13:10.670Z,24.70
2022-08-12T18:16:04.191Z,24.50
2022-08-12T18:18:24.297Z,24.40
2022-08-12T18:20:57.570Z,24.30
2022-08-12T18:23:27.367Z,24.30
2022-08-12T18:26:17.502Z,24.10
2022-08-12T18:28:44.533Z,23.90
2022-08-12T18:31:17.371Z,23.90
2022-08-12T18:33:46.202Z,23.80
2022-08-12T18:36:13.548Z,23.80
2022-08-12T18:38:40.401Z,23.60
2022-08-12T18:41:31.997Z,23.60
2022-08-12T18:44:09.729Z,23.30
2022-08-12T18:46:55.406Z,23.20
2022-08-12T18:49:30.737Z,23.10
2022-08-12T18:52:04.215Z,23.00
2022-08-12T18:54:37.427Z,22.80
2022-08-12T18:57:19.591Z,22.70
2022-08-12T19:00:01.146Z,22.50
2022-08-12T19:02:32.762Z,22.30
2022-08-12T19:05:03.205Z,22.20
2022-08-12T19:07:50.163Z,22.00
2022-08-12T19:10:23.116Z,22.00
2022-08-12T19:13:08.954Z,21.80
2022-08-12T19:15:43.037Z,21.60
2022-08-12T19:18:10.845Z,21.40
2022-08-12T19:20:39.271Z,21.20
2022-08-12T19:23:08.199Z,21.10
2022-08-12T19:26:00.329Z,20.90
2022-08-12T19:28:34.437Z,20.60
2022-08-12T19:31:56.859Z,20.60
2022-08-12T19:37:14.832Z,20.20
2022-08-12T19:40:10.189Z,20.00
2022-08-12T19:42:28.806Z,19.90
2022-08-12T19:45:02.264Z,19.70
2022-08-12T19:47:31.444Z,19.70
2022-08-12T19:50:06.737Z,19.50
2022-08-12T19:52:33.777Z,19.40
2022-08-12T19:55:01.396Z,19.30
2022-08-12T19:57:29.336Z,19.10
2022-08-12T20:00:04.134Z,18.90
2022-08-12T20:02:34.604Z,18.80
2022-08-12T20:06:04.702Z,18.70
2022-08-12T20:07:57.006Z,18.60
2022-08-12T20:10:35.237Z,18.50
2022-08-12T20:13:18.243Z,18.50
2022-08-12T20:15:59.488Z,18.40
2022-08-12T20:18:52.978Z,18.40
2022-08-12T20:21:15.999Z,18.20
2022-08-12T20:24:00.564Z,18.10
2022-08-12T20:26:28.082Z,18.20
2022-08-12T20:28:55.406Z,18.10
2022-08-12T20:31:22.073Z,18.00
2022-08-12T20:33:50.629Z,17.90
2022-08-12T20:36:42.924Z,17.70
2022-08-12T20:39:34.324Z,17.70
2022-08-12T20:42:07.113Z,17.70
2022-08-12T20:44:36.333Z,17.60
2022-08-12T20:47:18.054Z,17.60
2022-08-12T20:49:47.138Z,17.60
2022-08-12T20:52:25.241Z,17.50
2022-08-12T20:54:51.896Z,17.40
2022-08-12T20:57:19.424Z,17.30
2022-08-12T20:59:49.395Z,17.20
2022-08-12T21:02:18.796Z,17.10
2022-08-12T21:05:16.073Z,17.10
2022-08-12T21:07:51.613Z,17.00
2022-08-12T21:10:20.538Z,16.90
2022-08-12T21:12:47.911Z,16.80
2022-08-12T21:15:16.660Z,16.80
2022-08-12T21:18:09.406Z,16.70
2022-08-12T21:20:32.527Z,16.60
2022-08-12T21:22:59.312Z,16.50
2022-08-12T21:25:44.687Z,16.50
2022-08-12T21:28:13.878Z,16.50
2022-08-12T21:31:11.360Z,16.40
2022-08-12T21:33:31.785Z,16.40
2022-08-12T21:36:00.881Z,16.40
2022-08-12T21:38:34.337Z,16.30
2022-08-12T21:41:01.205Z,16.20
2022-08-12T21:43:44.514Z,16.20
2022-08-12T21:46:33.715Z,16.20
2022-08-12T21:49:03.980Z,16.00
2022-08-12T21:51:49.338Z,15.90
2022-08-12T21:54:22.008Z,16.00
2022-08-12T21:56:49.970Z,16.00
2022-08-12T21:59:17.351Z,16.00
2022-08-12T22:01:48.732Z,15.90
2022-08-12T22:04:35.137Z,15.90
2022-08-12T22:07:01.946Z,15.80
2022-08-12T22:09:29.462Z,15.80
2022-08-12T22:12:28.135Z,15.80
2022-08-12T22:14:54.780Z,15.70
2022-08-12T22:17:21.424Z,15.70
2022-08-12T22:19:50.460Z,15.70
2022-08-12T22:22:17.228Z,15.50
2022-08-12T22:24:47.889Z,15.40
2022-08-12T22:27:32.003Z,15.40
2022-08-12T22:30:19.848Z,15.40
2022-08-12T22:32:51.509Z,15.40
2022-08-12T22:35:56.239Z,15.40
2022-08-12T22:38:26.374Z,15.40
2022-08-12T22:41:01.640Z,15.00
2022-08-12T22:44:00.710Z,14.90
2022-08-12T22:46:37.190Z,14.90
2022-08-12T22:49:06.659Z,14.90
2022-08-12T22:51:57.418Z,14.80
2022-08-12T22:54:35.155Z,14.90
2022-08-12T22:57:03.218Z,14.70
2022-08-12T22:59:51.508Z,14.60
2022-08-12T23:02:17.672Z,14.50
2022-08-12T23:04:56.364Z,14.50
2022-08-12T23:07:24.505Z,14.60
2022-08-12T23:09:51.244Z,14.50
2022-08-12T23:12:46.591Z,14.50
2022-08-12T23:15:14.020Z,14.40
2022-08-12T23:17:41.827Z,14.20
2022-08-12T23:20:11.002Z,14.10
2022-08-12T23:22:38.266Z,14.20
2022-08-12T23:25:06.251Z,14.10
2022-08-12T23:28:03.733Z,14.10
2022-08-12T23:30:31.801Z,14.00
2022-08-12T23:33:02.319Z,14.10
2022-08-12T23:35:46.001Z,14.10
2022-08-12T23:38:31.096Z,14.10
2022-08-12T23:41:02.445Z,13.80
2022-08-12T23:43:39.574Z,13.90
2022-08-12T23:46:11.478Z,13.90
2022-08-12T23:48:38.366Z,14.00
2022-08-12T23:51:22.241Z,13.90
2022-08-12T23:53:55.446Z,14.00
2022-08-12T23:56:23.521Z,13.90
2022-08-12T23:58:52.506Z,13.90
